Swarna Ganga — AUYJ — position and weather

sailwx.info

Track history (hours):
 
Tides and Currents Weather Stations Pressure Air Temp Water Temp Dewpoint Dewpoint Depression Visibility Wind Speed Wind Dir Waves Ship Positions

Swarna Ganga

Last reported at 2018-May-18 15:01 UTC. Time now 2018-May-25 01:10 UTC.
Position N 17°27' E 072°40'.

Length 226 m; draft 8.5 m.

Type: Ship. MMSI: 419754000.

Date/timePositionNaut miles runAvg speedWind from/ knotsBaromVisibWave heightAir tempDewpointWater temp
2018-May-18 15:01N 17°27' E 072°40'1 9.8
2018-May-18 14:52N 17°29' E 072°40'2410.1
2018-May-18 12:31N 17°52' E 072°36'010.2
2018-May-18 12:30N 17°52' E 072°36'510.6
2018-May-18 12:00N 17°57' E 072°35'1010.7
2018-May-18 11:02N 18°08' E 072°33'510.4
2018-May-18 10:35N 18°12' E 072°33'41 1.0
2018-May-16 19:08N 18°51' E 072°47'2 6.9
2018-May-16 18:55N 18°50' E 072°45'610.0
2018-May-16 18:22N 18°50' E 072°39'3 9.6
2018-May-16 18:00N 18°46' E 072°39'0 0.2
2018-May-16 15:04N 18°46' E 072°38'0 0.1
2018-May-16 14:52N 18°46' E 072°38'0 0.0
2018-May-16 14:28N 18°46' E 072°38'0 0.1
2018-May-16 13:58N 18°46' E 072°38'0 0.0
2018-May-16 03:48N 18°46' E 072°38'1 4.5
2018-May-16 03:28N 18°47' E 072°40'18 1.9
2018-May-15 18:21N 18°57' E 072°55'0 0.0
2018-May-14 18:34N 18°57' E 072°55'0 0.2
2018-May-14 18:28N 18°57' E 072°55'1 1.7
2018-May-14 18:00N 18°57' E 072°54'3 5.4
2018-May-14 17:27N 18°55' E 072°52'4 6.6
2018-May-14 16:54N 18°52' E 072°50'13 6.9
2018-May-14 15:05N 18°55' E 072°37'1 9.3
2018-May-14 15:00N 18°56' E 072°37'4 8.7
2018-May-14 14:30N 19°00' E 072°35'4 8.0
2018-May-14 14:00N 19°04' E 072°34'3 0.2
2018-May-13 22:56N 19°07' E 072°34'3 4.0
2018-May-13 22:11N 19°04' E 072°35'12 7.8
2018-May-13 20:40N 18°56' E 072°26'1 1.5
2018-May-13 19:46N 18°54' E 072°26'1 1.6
2018-May-13 19:22N 18°55' E 072°25'0 1.2
2018-May-13 19:00N 18°55' E 072°25'0 1.0
2018-May-13 18:30N 18°54' E 072°25'0 0.1
2018-May-13 16:35N 18°54' E 072°25'0 0.1
2018-May-13 16:23N 18°54' E 072°25'0 0.0
2018-May-13 15:53N 18°54' E 072°25'0 0.0
2018-May-13 15:29N 18°54' E 072°25'0 0.0
2018-May-13 12:47N 18°54' E 072°25'0 0.2
2018-May-13 12:29N 18°54' E 072°25'0 0.1
2018-May-13 11:59N 18°54' E 072°25'0 0.1
2018-May-13 11:29N 18°54' E 072°25'0 0.1
2018-May-13 10:59N 18°54' E 072°25'0 0.0
2018-May-13 10:29N 18°54' E 072°25'1 0.1
2018-May-12 19:17N 18°54' E 072°26'0 0.0
2018-May-12 19:00N 18°54' E 072°26'0 0.1
2018-May-12 18:30N 18°54' E 072°26'0 0.1
2018-May-12 18:00N 18°54' E 072°26'0 0.0
2018-May-12 16:53N 18°54' E 072°26'0 0.0
2018-May-12 15:41N 18°54' E 072°26'0 0.0
2018-May-12 15:12N 18°54' E 072°26'0 0.1
2018-May-12 14:59N 18°54' E 072°26'0 0.0
2018-May-12 14:27N 18°54' E 072°26'0 0.1
2018-May-12 14:00N 18°54' E 072°26'0 0.1
2018-May-12 13:29N 18°54' E 072°26'0 0.0
2018-May-12 12:59N 18°54' E 072°26'0 0.1
2018-May-12 12:30N 18°54' E 072°26'0 0.0
2018-May-12 11:56N 18°54' E 072°26'0 0.0
2018-May-12 11:30N 18°54' E 072°26'16 1.4
2018-May-12 00:06N 18°52' E 072°09'1711.0
2018-May-11 22:32N 18°53' E 071°51'010.8
2018-May-11 22:30N 18°53' E 071°51'611.0
2018-May-11 21:59N 18°53' E 071°45'710.9
2018-May-11 21:21N 18°53' E 071°38'510.9
2018-May-11 20:54N 18°53' E 071°32'711.0
2018-May-11 20:13N 18°53' E 071°24'311.0
2018-May-11 19:59N 18°53' E 071°22'511.0
2018-May-11 19:30N 18°53' E 071°16'611.0
2018-May-11 18:59N 18°53' E 071°10'511.0
2018-May-11 18:30N 18°53' E 071°04'510.1
2018-May-11 17:59N 18°54' E 070°59'611.4
2018-May-11 17:26N 18°59' E 070°55'511.4
2018-May-11 16:58N 19°04' E 070°52'611.5
2018-May-11 16:26N 19°09' E 070°48'511.5
2018-May-11 16:00N 19°13' E 070°45'611.5
2018-May-11 15:29N 19°18' E 070°41'611.5
2018-May-11 15:00N 19°22' E 070°38'611.5
2018-May-11 14:30N 19°27' E 070°35'611.3
2018-May-11 14:00N 19°32' E 070°31'611.4
2018-May-11 13:30N 19°36' E 070°28'611.2
2018-May-11 13:00N 19°41' E 070°24'611.1
2018-May-11 12:26N 19°46' E 070°20'511.1
2018-May-11 12:00N 19°50' E 070°17'511.1
2018-May-11 11:30N 19°54' E 070°14'711.1
2018-May-11 10:54N 19°60' E 070°10'410.9
2018-May-11 10:30N 20°03' E 070°07'610.8
2018-May-11 09:58N 20°08' E 070°04'610.7
2018-May-11 09:24N 20°13' E 069°60'1410.8
2018-May-11 08:04N 20°25' E 069°51'110.8
2018-May-11 07:58N 20°25' E 069°50'510.9
2018-May-11 07:30N 20°30' E 069°47'1210.9
2018-May-11 06:24N 20°40' E 069°40'411.1
2018-May-11 06:00N 20°43' E 069°37'1361.9
2018-May-11 06:00N 20°42' E 069°36'612.4 290 / 31014.1 5.4 33.5
2018-May-11 05:29N 20°48' E 069°33'1011.2
2018-May-11 04:36N 20°56' E 069°28'211.3
2018-May-11 04:28N 20°57' E 069°27'3211.2
2018-May-11 01:37N 21°24' E 069°08'1011.2
2018-May-11 00:44N 21°32' E 069°02'3811.0
2018-May-10 21:20N 22°08' E 068°49'411.6
2018-May-10 21:00N 22°12' E 068°48'811.8
2018-May-10 20:21N 22°19' E 068°48'51 1.2
2018-May-09 01:37N 22°31' E 069°41'0 1.2
2018-May-09 01:30N 22°31' E 069°41'1 1.5
2018-May-09 01:00N 22°32' E 069°41'  
Track history (hours):
 
Tides and Currents Weather Stations Pressure Air Temp Water Temp Dewpoint Dewpoint Depression Visibility Wind Speed Wind Dir Waves Ship Positions

Swarna Ganga

Last reported at 2018-May-18 15:01 UTC. Time now 2018-May-25 01:10 UTC.
Position N 17°27' E 072°40'.

Length 226 m; draft 8.5 m.

Type: Ship. MMSI: 419754000.

Date/timePositionNaut miles runAvg speedWind from/ knotsBaromVisibWave heightAir tempDewpointWater temp
2018-May-18 15:01N 17°27' E 072°40'1 9.8
2018-May-18 14:52N 17°29' E 072°40'2410.1
2018-May-18 12:31N 17°52' E 072°36'010.2
2018-May-18 12:30N 17°52' E 072°36'510.6
2018-May-18 12:00N 17°57' E 072°35'1010.7
2018-May-18 11:02N 18°08' E 072°33'510.4
2018-May-18 10:35N 18°12' E 072°33'41 1.0
2018-May-16 19:08N 18°51' E 072°47'2 6.9
2018-May-16 18:55N 18°50' E 072°45'610.0
2018-May-16 18:22N 18°50' E 072°39'3 9.6
2018-May-16 18:00N 18°46' E 072°39'0 0.2
2018-May-16 15:04N 18°46' E 072°38'0 0.1
2018-May-16 14:52N 18°46' E 072°38'0 0.0
2018-May-16 14:28N 18°46' E 072°38'0 0.1
2018-May-16 13:58N 18°46' E 072°38'0 0.0
2018-May-16 03:48N 18°46' E 072°38'1 4.5
2018-May-16 03:28N 18°47' E 072°40'18 1.9
2018-May-15 18:21N 18°57' E 072°55'0 0.0
2018-May-14 18:34N 18°57' E 072°55'0 0.2
2018-May-14 18:28N 18°57' E 072°55'1 1.7
2018-May-14 18:00N 18°57' E 072°54'3 5.4
2018-May-14 17:27N 18°55' E 072°52'4 6.6
2018-May-14 16:54N 18°52' E 072°50'13 6.9
2018-May-14 15:05N 18°55' E 072°37'1 9.3
2018-May-14 15:00N 18°56' E 072°37'4 8.7
2018-May-14 14:30N 19°00' E 072°35'4 8.0
2018-May-14 14:00N 19°04' E 072°34'3 0.2
2018-May-13 22:56N 19°07' E 072°34'3 4.0
2018-May-13 22:11N 19°04' E 072°35'12 7.8
2018-May-13 20:40N 18°56' E 072°26'1 1.5
2018-May-13 19:46N 18°54' E 072°26'1 1.6
2018-May-13 19:22N 18°55' E 072°25'0 1.2
2018-May-13 19:00N 18°55' E 072°25'0 1.0
2018-May-13 18:30N 18°54' E 072°25'0 0.1
2018-May-13 16:35N 18°54' E 072°25'0 0.1
2018-May-13 16:23N 18°54' E 072°25'0 0.0
2018-May-13 15:53N 18°54' E 072°25'0 0.0
2018-May-13 15:29N 18°54' E 072°25'0 0.0
2018-May-13 12:47N 18°54' E 072°25'0 0.2
2018-May-13 12:29N 18°54' E 072°25'0 0.1
2018-May-13 11:59N 18°54' E 072°25'0 0.1
2018-May-13 11:29N 18°54' E 072°25'0 0.1
2018-May-13 10:59N 18°54' E 072°25'0 0.0
2018-May-13 10:29N 18°54' E 072°25'1 0.1
2018-May-12 19:17N 18°54' E 072°26'0 0.0
2018-May-12 19:00N 18°54' E 072°26'0 0.1
2018-May-12 18:30N 18°54' E 072°26'0 0.1
2018-May-12 18:00N 18°54' E 072°26'0 0.0
2018-May-12 16:53N 18°54' E 072°26'0 0.0
2018-May-12 15:41N 18°54' E 072°26'0 0.0
2018-May-12 15:12N 18°54' E 072°26'0 0.1
2018-May-12 14:59N 18°54' E 072°26'0 0.0
2018-May-12 14:27N 18°54' E 072°26'0 0.1
2018-May-12 14:00N 18°54' E 072°26'0 0.1
2018-May-12 13:29N 18°54' E 072°26'0 0.0
2018-May-12 12:59N 18°54' E 072°26'0 0.1
2018-May-12 12:30N 18°54' E 072°26'0 0.0
2018-May-12 11:56N 18°54' E 072°26'0 0.0
2018-May-12 11:30N 18°54' E 072°26'16 1.4
2018-May-12 00:06N 18°52' E 072°09'1711.0
2018-May-11 22:32N 18°53' E 071°51'010.8
2018-May-11 22:30N 18°53' E 071°51'611.0
2018-May-11 21:59N 18°53' E 071°45'710.9
2018-May-11 21:21N 18°53' E 071°38'510.9
2018-May-11 20:54N 18°53' E 071°32'711.0
2018-May-11 20:13N 18°53' E 071°24'311.0
2018-May-11 19:59N 18°53' E 071°22'511.0
2018-May-11 19:30N 18°53' E 071°16'611.0
2018-May-11 18:59N 18°53' E 071°10'511.0
2018-May-11 18:30N 18°53' E 071°04'510.1
2018-May-11 17:59N 18°54' E 070°59'611.4
2018-May-11 17:26N 18°59' E 070°55'511.4
2018-May-11 16:58N 19°04' E 070°52'611.5
2018-May-11 16:26N 19°09' E 070°48'511.5
2018-May-11 16:00N 19°13' E 070°45'611.5
2018-May-11 15:29N 19°18' E 070°41'611.5
2018-May-11 15:00N 19°22' E 070°38'611.5
2018-May-11 14:30N 19°27' E 070°35'611.3
2018-May-11 14:00N 19°32' E 070°31'611.4
2018-May-11 13:30N 19°36' E 070°28'611.2
2018-May-11 13:00N 19°41' E 070°24'611.1
2018-May-11 12:26N 19°46' E 070°20'511.1
2018-May-11 12:00N 19°50' E 070°17'511.1
2018-May-11 11:30N 19°54' E 070°14'711.1
2018-May-11 10:54N 19°60' E 070°10'410.9
2018-May-11 10:30N 20°03' E 070°07'610.8
2018-May-11 09:58N 20°08' E 070°04'610.7
2018-May-11 09:24N 20°13' E 069°60'1410.8
2018-May-11 08:04N 20°25' E 069°51'110.8
2018-May-11 07:58N 20°25' E 069°50'510.9
2018-May-11 07:30N 20°30' E 069°47'1210.9
2018-May-11 06:24N 20°40' E 069°40'411.1
2018-May-11 06:00N 20°43' E 069°37'1361.9
2018-May-11 06:00N 20°42' E 069°36'612.4 290 / 31014.1 5.4 33.5
2018-May-11 05:29N 20°48' E 069°33'1011.2
2018-May-11 04:36N 20°56' E 069°28'211.3
2018-May-11 04:28N 20°57' E 069°27'3211.2
2018-May-11 01:37N 21°24' E 069°08'1011.2
2018-May-11 00:44N 21°32' E 069°02'3811.0
2018-May-10 21:20N 22°08' E 068°49'411.6
2018-May-10 21:00N 22°12' E 068°48'811.8
2018-May-10 20:21N 22°19' E 068°48'51 1.2
2018-May-09 01:37N 22°31' E 069°41'0 1.2
2018-May-09 01:30N 22°31' E 069°41'1 1.5
2018-May-09 01:00N 22°32' E 069°41'  

Dump ship's entire track history